createdAt,value
2019-03-17T00:02:16.615Z,49.60
2019-03-17T00:04:46.082Z,49.80
2019-03-17T00:07:15.509Z,49.90
2019-03-17T00:09:44.954Z,50.10
2019-03-17T00:12:14.393Z,50.20
2019-03-17T00:14:43.874Z,50.30
2019-03-17T00:17:13.274Z,50.40
2019-03-17T00:19:42.697Z,50.50
2019-03-17T00:22:12.086Z,50.60
2019-03-17T00:24:41.903Z,50.60
2019-03-17T00:27:11.320Z,50.70
2019-03-17T00:29:40.788Z,50.80
2019-03-17T00:32:11.271Z,50.80
2019-03-17T00:34:44.400Z,50.80
2019-03-17T00:37:12.769Z,50.70
2019-03-17T00:39:42.180Z,50.60
2019-03-17T00:42:11.636Z,50.60
2019-03-17T00:44:41.056Z,50.60
2019-03-17T00:47:10.881Z,50.60
2019-03-17T00:49:40.528Z,50.60
2019-03-17T00:52:09.952Z,50.70
2019-03-17T00:54:39.434Z,50.70
2019-03-17T00:57:08.857Z,50.80
2019-03-17T00:59:38.264Z,50.70
2019-03-17T01:02:07.698Z,50.60
2019-03-17T01:04:37.116Z,50.50
2019-03-17T01:07:06.514Z,50.70
2019-03-17T01:09:36.011Z,50.60
2019-03-17T01:12:05.651Z,50.70
2019-03-17T01:14:35.048Z,50.90
2019-03-17T01:17:04.487Z,50.90
2019-03-17T01:19:33.955Z,51.00
2019-03-17T01:22:03.382Z,51.00
2019-03-17T01:24:32.794Z,51.00
2019-03-17T01:27:02.267Z,50.90
2019-03-17T01:29:31.704Z,51.00
2019-03-17T01:32:01.292Z,51.10
2019-03-17T01:34:30.791Z,51.20
2019-03-17T01:37:00.194Z,51.20
2019-03-17T01:39:29.584Z,51.30
2019-03-17T01:41:59.095Z,51.30
2019-03-17T01:44:30.292Z,51.20
2019-03-17T01:46:59.719Z,51.30
2019-03-17T01:49:29.116Z,51.20
2019-03-17T01:51:58.521Z,51.20
2019-03-17T01:54:27.933Z,51.20
2019-03-17T01:56:57.647Z,51.30
2019-03-17T01:59:27.083Z,52.10
2019-03-17T02:01:56.623Z,52.20
2019-03-17T02:04:26.011Z,52.20
2019-03-17T02:06:55.510Z,52.30
2019-03-17T02:09:24.960Z,52.30
2019-03-17T02:11:54.386Z,52.40
2019-03-17T02:14:23.780Z,52.50
2019-03-17T02:16:53.168Z,52.60
2019-03-17T02:19:22.588Z,52.80
2019-03-17T02:21:51.972Z,52.70
2019-03-17T02:24:21.390Z,52.90
2019-03-17T02:26:50.843Z,52.90
2019-03-17T02:29:20.416Z,53.00
2019-03-17T02:31:49.921Z,53.00
2019-03-17T02:34:19.385Z,53.00
2019-03-17T02:36:48.882Z,53.00
2019-03-17T02:39:18.286Z,53.10
2019-03-17T02:41:47.783Z,53.20
2019-03-17T02:44:17.225Z,53.20
2019-03-17T02:46:46.616Z,53.20
2019-03-17T02:49:16.045Z,53.30
2019-03-17T02:51:45.429Z,53.20
2019-03-17T02:54:14.816Z,53.90
2019-03-17T02:56:44.270Z,53.30
2019-03-17T02:59:13.701Z,53.30
2019-03-17T03:01:43.131Z,53.40
2019-03-17T03:04:12.593Z,53.40
2019-03-17T03:06:42.052Z,53.50
2019-03-17T03:09:11.462Z,53.70
2019-03-17T03:11:40.923Z,53.90
2019-03-17T03:14:10.333Z,53.90
2019-03-17T03:16:39.997Z,54.00
2019-03-17T03:19:09.506Z,54.10
2019-03-17T03:21:39.247Z,54.10
2019-03-17T03:24:08.640Z,54.10
2019-03-17T03:26:38.042Z,54.20
2019-03-17T03:29:07.508Z,54.30
2019-03-17T03:31:36.941Z,54.30
2019-03-17T03:34:06.411Z,54.40
2019-03-17T03:36:35.876Z,54.50
2019-03-17T03:39:07.207Z,54.40
2019-03-17T03:41:36.948Z,54.50
2019-03-17T03:44:06.457Z,54.50
2019-03-17T03:46:35.922Z,54.60
2019-03-17T03:49:05.380Z,54.60
2019-03-17T03:51:34.784Z,54.50
2019-03-17T03:54:04.244Z,54.60
2019-03-17T03:56:33.738Z,54.50
2019-03-17T03:59:03.182Z,54.60
2019-03-17T04:01:32.672Z,54.70
2019-03-17T04:04:02.067Z,54.70
2019-03-17T04:06:33.341Z,54.60
2019-03-17T04:09:02.799Z,54.60
2019-03-17T04:11:32.257Z,54.60
2019-03-17T04:14:01.669Z,54.70
2019-03-17T04:16:31.060Z,54.80
2019-03-17T04:19:00.481Z,54.70
2019-03-17T04:21:29.884Z,54.70
2019-03-17T04:23:59.274Z,54.60
2019-03-17T04:26:28.751Z,54.60
2019-03-17T04:28:58.164Z,54.60
2019-03-17T04:31:27.681Z,54.60
2019-03-17T04:33:57.081Z,54.50
2019-03-17T04:36:39.084Z,54.50
2019-03-17T04:38:57.597Z,54.60
2019-03-17T04:41:26.991Z,54.40
2019-03-17T04:43:56.428Z,54.30
2019-03-17T04:46:25.887Z,54.30
2019-03-17T04:48:55.401Z,54.30
2019-03-17T04:51:25.064Z,54.30
2019-03-17T04:53:54.455Z,54.30
2019-03-17T04:56:23.840Z,54.20
2019-03-17T04:58:53.232Z,54.30
2019-03-17T05:01:22.624Z,54.30
2019-03-17T05:03:52.117Z,54.20
2019-03-17T05:06:21.511Z,54.20
2019-03-17T05:08:50.975Z,54.10
2019-03-17T05:11:20.453Z,54.10
2019-03-17T05:13:49.904Z,54.10
2019-03-17T05:16:20.765Z,54.00
2019-03-17T05:18:51.186Z,54.00
2019-03-17T05:21:20.644Z,54.00
2019-03-17T05:23:50.060Z,54.00
2019-03-17T05:26:19.474Z,54.10
2019-03-17T05:28:48.857Z,54.00
2019-03-17T05:31:18.260Z,54.10
2019-03-17T05:33:47.664Z,54.00
2019-03-17T05:36:17.129Z,54.00
2019-03-17T05:38:46.523Z,54.00
2019-03-17T05:41:15.990Z,54.00
2019-03-17T05:43:45.400Z,54.00
2019-03-17T05:46:14.787Z,54.00
2019-03-17T05:48:44.212Z,54.00
2019-03-17T05:51:13.600Z,54.00
2019-03-17T05:53:42.996Z,54.00
2019-03-17T05:56:12.470Z,54.00
2019-03-17T05:58:41.848Z,54.00
2019-03-17T06:01:11.256Z,54.10
2019-03-17T06:03:40.645Z,54.20
2019-03-17T06:06:10.104Z,54.10
2019-03-17T06:08:39.515Z,54.10
2019-03-17T06:11:08.968Z,54.10
2019-03-17T06:13:38.380Z,54.20
2019-03-17T06:16:07.764Z,54.20
2019-03-17T06:18:37.151Z,54.20
2019-03-17T06:21:06.573Z,54.30
2019-03-17T06:23:35.952Z,54.30
2019-03-17T06:26:05.461Z,54.30
2019-03-17T06:28:34.844Z,54.40
2019-03-17T06:31:04.261Z,54.40
2019-03-17T06:33:33.724Z,54.40
2019-03-17T06:36:03.189Z,54.50
2019-03-17T06:38:32.592Z,54.70
2019-03-17T06:41:04.260Z,54.70
2019-03-17T06:43:34.912Z,54.80
2019-03-17T06:46:04.393Z,54.90
2019-03-17T06:48:33.823Z,55.00
2019-03-17T06:51:03.208Z,55.10
2019-03-17T06:53:32.595Z,55.20
2019-03-17T06:56:02.008Z,55.20
2019-03-17T06:58:31.395Z,55.20
2019-03-17T07:01:00.813Z,55.30
2019-03-17T07:03:30.200Z,55.30
2019-03-17T07:05:59.612Z,55.40
2019-03-17T07:08:29.084Z,55.50
2019-03-17T07:10:58.484Z,55.50
2019-03-17T07:13:27.900Z,55.40
2019-03-17T07:15:57.288Z,54.60
2019-03-17T07:18:26.704Z,54.60
2019-03-17T07:20:56.133Z,54.60
2019-03-17T07:23:25.520Z,54.70
2019-03-17T07:25:54.920Z,55.30
2019-03-17T07:28:24.341Z,54.70
2019-03-17T07:30:53.831Z,54.60
2019-03-17T07:33:23.338Z,54.70
2019-03-17T07:35:52.761Z,54.60
2019-03-17T07:38:22.172Z,55.00
2019-03-17T07:40:51.641Z,54.60
2019-03-17T07:43:21.132Z,54.60
2019-03-17T07:45:50.544Z,54.50
2019-03-17T07:48:20.061Z,54.50
2019-03-17T07:50:49.524Z,54.40
2019-03-17T07:53:19.025Z,54.40
2019-03-17T07:55:48.433Z,54.40
2019-03-17T07:58:18.749Z,54.40
2019-03-17T08:00:48.228Z,54.40
2019-03-17T08:03:17.625Z,54.50
2019-03-17T08:05:47.059Z,54.60
2019-03-17T08:08:16.442Z,54.70
2019-03-17T08:10:45.865Z,54.50
2019-03-17T08:13:15.264Z,54.50
2019-03-17T08:15:44.724Z,54.40
2019-03-17T08:18:14.130Z,54.50
2019-03-17T08:20:43.531Z,54.50
2019-03-17T08:23:13.028Z,54.40
2019-03-17T08:25:42.548Z,54.30
2019-03-17T08:28:11.939Z,54.10
2019-03-17T08:30:52.446Z,54.30
2019-03-17T08:33:12.479Z,54.20
2019-03-17T08:35:42.388Z,54.20
2019-03-17T08:38:21.200Z,54.10
2019-03-17T08:40:43.432Z,53.90
2019-03-17T08:43:12.888Z,54.00
2019-03-17T08:45:44.267Z,53.80
2019-03-17T08:48:14.776Z,53.70
2019-03-17T08:50:44.181Z,53.60
2019-03-17T08:53:13.699Z,53.30
2019-03-17T08:55:43.158Z,53.10
2019-03-17T08:58:12.623Z,53.00
2019-03-17T09:00:42.104Z,53.00
2019-03-17T09:03:11.504Z,52.80
2019-03-17T09:05:41.015Z,52.70
2019-03-17T09:08:10.518Z,52.50
2019-03-17T09:10:39.908Z,52.50
2019-03-17T09:13:09.401Z,52.30
2019-03-17T09:15:38.867Z,52.20
2019-03-17T09:18:08.288Z,52.10
2019-03-17T09:20:37.677Z,52.10
2019-03-17T09:23:07.095Z,52.20
2019-03-17T09:25:36.592Z,52.10
2019-03-17T09:28:05.989Z,52.10
2019-03-17T09:30:35.407Z,52.10
2019-03-17T09:33:04.797Z,52.00
2019-03-17T09:35:34.252Z,51.80
2019-03-17T09:38:03.745Z,51.70
2019-03-17T09:40:33.311Z,51.60
2019-03-17T09:43:02.738Z,51.40
2019-03-17T09:45:32.206Z,51.10
2019-03-17T09:48:03.141Z,51.00
2019-03-17T09:50:32.548Z,50.80
2019-03-17T09:53:01.936Z,50.70
2019-03-17T09:55:31.364Z,50.50
2019-03-17T09:58:00.752Z,50.40
2019-03-17T10:00:30.144Z,50.30
2019-03-17T10:02:59.550Z,50.10
2019-03-17T10:05:29.004Z,49.80
2019-03-17T10:07:58.454Z,49.40
2019-03-17T10:10:27.916Z,49.20
2019-03-17T10:12:57.299Z,48.90
2019-03-17T10:15:26.708Z,48.60
2019-03-17T10:17:56.109Z,48.10
2019-03-17T10:20:25.527Z,47.90
2019-03-17T10:22:54.940Z,47.50
2019-03-17T10:25:24.328Z,47.10
2019-03-17T10:27:53.721Z,46.50
2019-03-17T10:30:23.190Z,46.20
2019-03-17T10:32:52.605Z,45.90
2019-03-17T10:35:22.064Z,45.50
2019-03-17T10:37:51.448Z,45.00
2019-03-17T10:40:20.864Z,44.70
2019-03-17T10:42:50.624Z,44.30
2019-03-17T10:45:20.032Z,43.80
2019-03-17T10:47:49.483Z,43.20
2019-03-17T10:50:18.899Z,42.60
2019-03-17T10:52:48.281Z,42.20
2019-03-17T10:55:17.767Z,41.60
2019-03-17T10:57:47.177Z,41.10
2019-03-17T11:00:16.870Z,40.60
2019-03-17T11:02:46.349Z,39.90
2019-03-17T11:05:15.892Z,40.00
2019-03-17T11:07:45.356Z,38.80
2019-03-17T11:10:15.089Z,38.30
2019-03-17T11:12:44.548Z,37.70
2019-03-17T11:15:14.524Z,37.30
2019-03-17T11:17:43.937Z,37.00
2019-03-17T11:20:13.370Z,37.10
2019-03-17T11:22:42.868Z,35.90
2019-03-17T11:25:12.361Z,35.40
2019-03-17T11:27:41.762Z,35.00
2019-03-17T11:30:12.052Z,34.50
2019-03-17T11:32:41.544Z,34.40
2019-03-17T11:35:11.120Z,34.00
2019-03-17T11:37:40.500Z,33.30
2019-03-17T11:40:11.319Z,32.70
2019-03-17T11:42:40.773Z,32.30
2019-03-17T11:45:12.112Z,31.70
2019-03-17T11:47:41.578Z,31.60
2019-03-17T11:50:11.911Z,31.90
2019-03-17T11:52:41.411Z,32.30
2019-03-17T11:55:10.997Z,32.00
2019-03-17T11:57:41.113Z,31.60
2019-03-17T12:00:12.324Z,30.90
2019-03-17T12:02:41.784Z,30.50
2019-03-17T12:05:11.179Z,30.00
2019-03-17T12:07:40.668Z,29.50
2019-03-17T12:10:11.876Z,29.10
2019-03-17T12:12:41.269Z,28.80
2019-03-17T12:15:12.795Z,28.30
2019-03-17T12:17:42.262Z,28.00
2019-03-17T12:20:12.316Z,27.70
2019-03-17T12:22:42.076Z,27.20
2019-03-17T12:25:12.564Z,26.90
2019-03-17T12:27:41.948Z,26.50
2019-03-17T12:30:23.200Z,26.30
2019-03-17T12:32:52.946Z,25.90
2019-03-17T12:35:22.740Z,25.70
2019-03-17T12:37:52.191Z,25.40
2019-03-17T12:40:21.570Z,25.10
2019-03-17T12:42:51.156Z,24.90
2019-03-17T12:45:20.624Z,24.90
2019-03-17T12:47:50.096Z,24.60
2019-03-17T12:50:19.517Z,24.40
2019-03-17T12:52:48.947Z,24.30
2019-03-17T12:55:18.380Z,27.20
2019-03-17T12:57:47.843Z,24.10
2019-03-17T13:00:17.232Z,23.90
2019-03-17T13:02:46.688Z,26.30
2019-03-17T13:05:16.176Z,32.90
2019-03-17T13:07:46.002Z,32.10
2019-03-17T13:10:16.699Z,32.50
2019-03-17T13:12:46.302Z,37.00
2019-03-17T13:15:15.761Z,26.90
2019-03-17T13:17:45.178Z,40.80
2019-03-17T13:20:14.588Z,38.80
2019-03-17T13:22:44.174Z,39.90
2019-03-17T13:25:14.245Z,38.00
2019-03-17T13:27:43.711Z,37.60
2019-03-17T13:30:13.697Z,26.00
2019-03-17T13:32:43.087Z,25.30
2019-03-17T13:35:12.486Z,25.70
2019-03-17T13:37:41.968Z,26.20
2019-03-17T13:40:12.252Z,26.50
2019-03-17T13:42:41.840Z,26.30
2019-03-17T13:45:11.782Z,26.90
2019-03-17T13:47:41.223Z,26.90
2019-03-17T13:50:12.660Z,27.00
2019-03-17T13:52:42.053Z,27.20
2019-03-17T13:55:11.542Z,27.10
2019-03-17T13:57:41.532Z,27.40
2019-03-17T14:00:13.303Z,27.70
2019-03-17T14:02:42.717Z,27.80
2019-03-17T14:05:13.714Z,27.90
2019-03-17T14:07:43.192Z,28.00
2019-03-17T14:10:14.774Z,28.00
2019-03-17T14:12:44.357Z,28.10
2019-03-17T14:15:14.545Z,28.30
2019-03-17T14:17:43.920Z,28.40
2019-03-17T14:20:15.322Z,28.70
2019-03-17T14:22:44.810Z,28.80
2019-03-17T14:25:19.849Z,29.10
2019-03-17T14:27:49.827Z,29.30
2019-03-17T14:30:19.212Z,29.60
2019-03-17T14:32:48.687Z,29.70
2019-03-17T14:35:21.142Z,29.90
2019-03-17T14:37:49.374Z,30.00
2019-03-17T14:40:18.808Z,30.10
2019-03-17T14:42:48.232Z,30.40
2019-03-17T14:45:17.639Z,30.60
2019-03-17T14:47:47.101Z,31.00
2019-03-17T14:50:17.864Z,31.20
2019-03-17T14:52:47.289Z,31.50
2019-03-17T14:55:16.810Z,31.70
2019-03-17T14:57:46.249Z,32.00
2019-03-17T15:00:17.507Z,32.20
2019-03-17T15:02:47.278Z,32.40
2019-03-17T15:05:16.943Z,32.60
2019-03-17T15:07:46.539Z,32.70
2019-03-17T15:10:17.174Z,33.00
2019-03-17T15:12:46.680Z,33.20
2019-03-17T15:15:16.700Z,33.30
2019-03-17T15:17:46.430Z,33.20
2019-03-17T15:20:17.129Z,33.20
2019-03-17T15:22:46.604Z,33.20
2019-03-17T15:25:16.061Z,33.40
2019-03-17T15:27:45.468Z,33.50
2019-03-17T15:30:22.335Z,33.50
2019-03-17T15:32:51.803Z,33.50
2019-03-17T15:35:22.905Z,33.40
2019-03-17T15:37:52.305Z,33.50
2019-03-17T15:40:21.802Z,33.50
2019-03-17T15:42:51.476Z,33.70
2019-03-17T15:45:20.973Z,33.70
2019-03-17T15:47:50.356Z,33.80
2019-03-17T15:50:20.105Z,34.00
2019-03-17T15:52:49.564Z,34.10
2019-03-17T15:55:19.077Z,34.10
2019-03-17T15:57:48.537Z,34.30
2019-03-17T16:00:25.403Z,35.10
2019-03-17T16:02:50.672Z,35.10
2019-03-17T16:05:20.532Z,34.80
2019-03-17T16:07:50.163Z,34.80
2019-03-17T16:10:20.189Z,34.80
2019-03-17T16:12:49.674Z,35.00
2019-03-17T16:15:19.261Z,35.00
2019-03-17T16:17:48.752Z,35.20
2019-03-17T16:20:19.256Z,35.30
2019-03-17T16:22:48.664Z,35.30
2019-03-17T16:25:18.899Z,35.40
2019-03-17T16:27:48.297Z,35.60
2019-03-17T16:30:19.563Z,35.70
2019-03-17T16:32:49.183Z,35.80
2019-03-17T16:35:18.641Z,36.00
2019-03-17T16:37:48.051Z,36.00
2019-03-17T16:40:18.976Z,36.20
2019-03-17T16:42:48.383Z,36.30
2019-03-17T16:45:18.081Z,36.30
2019-03-17T16:47:47.472Z,36.50
2019-03-17T16:50:17.723Z,36.70
2019-03-17T16:52:47.272Z,37.00
2019-03-17T16:55:17.091Z,37.20
2019-03-17T16:57:46.480Z,37.20
2019-03-17T17:00:19.034Z,37.40
2019-03-17T17:02:48.582Z,37.60
2019-03-17T17:05:18.039Z,37.70
2019-03-17T17:07:47.669Z,37.90
2019-03-17T17:10:17.747Z,38.00
2019-03-17T17:12:47.148Z,38.20
2019-03-17T17:15:18.621Z,38.40
2019-03-17T17:17:48.196Z,38.70
2019-03-17T17:20:22.641Z,38.80
2019-03-17T17:22:52.192Z,38.90
2019-03-17T17:25:21.785Z,39.10
2019-03-17T17:27:51.197Z,39.80
2019-03-17T17:30:20.719Z,40.00
2019-03-17T17:32:50.101Z,39.40
2019-03-17T17:35:19.516Z,39.70
2019-03-17T17:37:50.084Z,39.80
2019-03-17T17:40:19.556Z,39.90
2019-03-17T17:42:49.150Z,40.10
2019-03-17T17:45:18.655Z,40.20
2019-03-17T17:47:48.132Z,40.30
2019-03-17T17:50:17.905Z,40.40
2019-03-17T17:52:47.303Z,40.60
2019-03-17T17:55:16.730Z,40.60
2019-03-17T17:57:46.288Z,40.80
2019-03-17T18:00:19.698Z,41.00
2019-03-17T18:02:49.176Z,41.00
2019-03-17T18:05:18.652Z,41.10
2019-03-17T18:07:48.053Z,41.30
2019-03-17T18:10:17.520Z,41.40
2019-03-17T18:12:46.992Z,42.20
2019-03-17T18:15:18.800Z,41.70
2019-03-17T18:17:48.375Z,41.70
2019-03-17T18:20:18.224Z,41.90
2019-03-17T18:22:47.604Z,42.00
2019-03-17T18:25:17.107Z,42.00
2019-03-17T18:27:46.587Z,42.00
2019-03-17T18:30:16.665Z,42.10
2019-03-17T18:32:46.146Z,42.20
2019-03-17T18:35:15.716Z,42.20
2019-03-17T18:37:45.186Z,42.40
2019-03-17T18:40:15.670Z,42.50
2019-03-17T18:42:45.333Z,42.50
2019-03-17T18:45:16.769Z,42.50
2019-03-17T18:47:46.385Z,42.60
2019-03-17T18:50:20.582Z,42.80
2019-03-17T18:52:47.275Z,42.80
2019-03-17T18:55:16.886Z,42.90
2019-03-17T18:57:46.363Z,43.10
2019-03-17T19:00:16.885Z,43.00
2019-03-17T19:02:46.905Z,43.20
2019-03-17T19:05:19.376Z,43.40
2019-03-17T19:07:47.558Z,43.50
2019-03-17T19:10:17.063Z,43.50
2019-03-17T19:12:46.681Z,43.60
2019-03-17T19:15:16.144Z,43.70
2019-03-17T19:17:45.536Z,43.80
2019-03-17T19:20:15.653Z,43.90
2019-03-17T19:22:45.044Z,44.00
2019-03-17T19:25:15.493Z,44.10
2019-03-17T19:27:45.063Z,44.20
2019-03-17T19:30:15.955Z,44.20
2019-03-17T19:32:45.546Z,44.30
2019-03-17T19:35:15.319Z,44.40
2019-03-17T19:37:44.728Z,44.40
2019-03-17T19:40:14.740Z,44.50
2019-03-17T19:42:57.422Z,44.60
2019-03-17T19:45:19.213Z,44.60
2019-03-17T19:47:48.629Z,44.70
2019-03-17T19:50:18.111Z,44.80
2019-03-17T19:52:47.499Z,44.80
2019-03-17T19:55:16.987Z,44.90
2019-03-17T19:57:46.457Z,45.10
2019-03-17T20:00:16.440Z,45.00
2019-03-17T20:02:47.739Z,45.10
2019-03-17T20:05:17.021Z,45.10
2019-03-17T20:07:46.508Z,44.90
2019-03-17T20:10:18.656Z,44.80
2019-03-17T20:12:48.143Z,44.70
2019-03-17T20:15:17.545Z,44.50
2019-03-17T20:17:46.943Z,44.40
2019-03-17T20:20:16.432Z,44.30
2019-03-17T20:22:45.950Z,44.20
2019-03-17T20:25:15.428Z,44.10
2019-03-17T20:27:44.896Z,44.00
2019-03-17T20:30:14.430Z,43.80
2019-03-17T20:32:43.913Z,43.70
2019-03-17T20:35:13.333Z,43.60
2019-03-17T20:37:42.933Z,43.50
2019-03-17T20:40:12.352Z,43.40
2019-03-17T20:42:41.752Z,43.30
2019-03-17T20:45:11.667Z,42.90
2019-03-17T20:47:41.133Z,43.10
2019-03-17T20:50:11.580Z,43.10
2019-03-17T20:52:41.074Z,43.00
2019-03-17T20:55:10.728Z,42.90
2019-03-17T20:57:41.667Z,42.90
2019-03-17T21:00:13.179Z,42.90
2019-03-17T21:02:42.957Z,42.90
2019-03-17T21:05:12.824Z,42.80
2019-03-17T21:07:43.619Z,42.80
2019-03-17T21:10:13.184Z,42.60
2019-03-17T21:12:42.670Z,42.60
2019-03-17T21:15:12.696Z,42.70
2019-03-17T21:17:42.084Z,42.60
2019-03-17T21:20:13.399Z,43.10
2019-03-17T21:22:44.415Z,42.60
2019-03-17T21:25:13.876Z,42.60
2019-03-17T21:27:43.279Z,42.60
2019-03-17T21:30:15.253Z,42.60
2019-03-17T21:32:44.653Z,42.60
2019-03-17T21:35:14.050Z,42.70
2019-03-17T21:37:43.576Z,42.60
2019-03-17T21:40:13.341Z,42.60
2019-03-17T21:42:42.884Z,42.60
2019-03-17T21:45:12.560Z,42.60
2019-03-17T21:47:42.937Z,42.60
2019-03-17T21:50:14.129Z,42.50
2019-03-17T21:52:43.704Z,42.60
2019-03-17T21:55:13.273Z,42.50
2019-03-17T21:57:42.759Z,42.60
2019-03-17T22:00:14.243Z,42.60
2019-03-17T22:02:43.767Z,42.60
2019-03-17T22:05:13.732Z,42.60
2019-03-17T22:07:50.117Z,42.60
2019-03-17T22:10:16.577Z,42.50
2019-03-17T22:12:46.047Z,42.50
2019-03-17T22:15:15.541Z,42.60
2019-03-17T22:17:44.944Z,42.50
2019-03-17T22:20:14.622Z,42.50
2019-03-17T22:22:44.104Z,42.60
2019-03-17T22:25:13.585Z,42.60
2019-03-17T22:27:43.016Z,42.60
2019-03-17T22:30:13.448Z,42.50
2019-03-17T22:32:42.904Z,42.50
2019-03-17T22:35:12.303Z,42.50
2019-03-17T22:37:41.696Z,42.50
2019-03-17T22:40:12.342Z,42.50
2019-03-17T22:42:43.615Z,42.60
2019-03-17T22:45:13.104Z,42.50
2019-03-17T22:47:42.509Z,42.50
2019-03-17T22:50:12.295Z,42.70
2019-03-17T22:52:41.713Z,42.70
2019-03-17T22:55:11.411Z,42.60
2019-03-17T22:57:40.797Z,42.90
2019-03-17T23:00:13.348Z,42.70
2019-03-17T23:02:42.736Z,42.80
2019-03-17T23:05:12.140Z,42.70
2019-03-17T23:07:41.524Z,42.80
2019-03-17T23:10:11.844Z,42.80
2019-03-17T23:12:41.292Z,42.80
2019-03-17T23:15:11.123Z,42.90
2019-03-17T23:17:40.612Z,42.90
2019-03-17T23:20:10.609Z,43.00
2019-03-17T23:22:39.998Z,42.90
2019-03-17T23:25:09.709Z,43.00
2019-03-17T23:27:39.168Z,43.70
2019-03-17T23:30:09.682Z,43.10
2019-03-17T23:32:39.145Z,43.00
2019-03-17T23:35:09.024Z,43.10
2019-03-17T23:37:38.439Z,43.10
2019-03-17T23:40:09.651Z,43.80
2019-03-17T23:42:39.067Z,43.20
2019-03-17T23:45:09.453Z,43.30
2019-03-17T23:47:38.872Z,43.20
2019-03-17T23:50:08.465Z,43.30
2019-03-17T23:52:37.847Z,43.90
2019-03-17T23:55:07.692Z,43.30
2019-03-17T23:57:37.074Z,43.50
